Time;durP1;ratioP1;P1;durP2;ratioP2;P2;SDS_P1;SDS_P2;PMS_P1;PMS_P2;Temp;Humidity;BMP_temperature;BMP_pressure;BME280_temperature;BME280_humidity;BME280_pressure;Samples;Min_cycle;Max_cycle;Signal;HPM_P1;HPM_P2
2021/09/29 00:00:33;;;;;;;13.97;11.23;;;17.00;99.90;;;;;;5139454;27;20463;-65
2021/09/29 00:03:00;;;;;;;11.20;9.53;;;17.00;99.90;;;;;;5138791;27;20467;-65
2021/09/29 00:05:28;;;;;;;10.17;9.13;;;16.90;99.90;;;;;;5139022;27;20455;-65
2021/09/29 00:07:55;;;;;;;11.73;9.30;;;16.90;99.90;;;;;;5139480;27;20928;-66
2021/09/29 00:10:22;;;;;;;11.63;10.13;;;16.90;99.90;;;;;;5138734;27;20477;-64
2021/09/29 00:12:49;;;;;;;10.67;9.57;;;16.90;99.90;;;;;;5125244;27;20467;-65
2021/09/29 00:15:16;;;;;;;10.50;9.53;;;16.90;99.90;;;;;;5138583;27;20808;-65
2021/09/29 00:17:49;;;;;;;11.07;9.97;;;16.90;99.90;;;;;;5138673;27;20476;-65
2021/09/29 00:20:17;;;;;;;10.87;9.07;;;16.90;99.90;;;;;;5132688;27;20477;-65
2021/09/29 00:22:45;;;;;;;12.80;9.33;;;16.90;99.90;;;;;;5139430;27;20464;-65
2021/09/29 00:25:15;;;;;;;12.70;9.47;;;16.90;99.90;;;;;;5138374;27;20459;-65
2021/09/29 00:27:44;;;;;;;12.17;8.60;;;16.80;99.90;;;;;;5138861;27;20459;-65
2021/09/29 00:30:13;;;;;;;9.90;8.90;;;16.80;99.90;;;;;;5123667;27;20467;-65
2021/09/29 00:32:42;;;;;;;11.47;9.93;;;16.90;99.90;;;;;;5135776;27;20463;-65
2021/09/29 00:35:11;;;;;;;11.70;9.83;;;16.80;99.90;;;;;;5135203;27;20808;-65
2021/09/29 00:37:39;;;;;;;9.63;8.63;;;16.80;99.90;;;;;;5136105;27;20460;-65
2021/09/29 00:40:10;;;;;;;10.43;8.40;;;16.80;99.90;;;;;;5135393;27;20967;-65
2021/09/29 00:42:37;;;;;;;10.47;8.30;;;16.90;99.90;;;;;;5135556;27;20459;-65
2021/09/29 00:45:04;;;;;;;9.67;8.40;;;16.90;99.90;;;;;;5134617;27;20470;-65
2021/09/29 00:47:32;;;;;;;12.80;9.40;;;16.90;99.90;;;;;;5135617;27;20460;-65
2021/09/29 00:49:59;;;;;;;9.23;8.07;;;16.80;99.90;;;;;;5131017;27;20465;-65
2021/09/29 00:52:26;;;;;;;8.93;8.03;;;16.80;99.90;;;;;;5127480;27;20462;-65
2021/09/29 00:54:54;;;;;;;10.70;9.10;;;16.80;99.90;;;;;;5135553;27;20953;-65
2021/09/29 00:57:22;;;;;;;8.40;7.40;;;16.70;99.90;;;;;;5135000;27;20714;-65
2021/09/29 00:59:50;;;;;;;9.17;8.27;;;16.80;99.90;;;;;;5129589;27;20464;-65
2021/09/29 01:02:18;;;;;;;9.27;8.10;;;16.70;99.90;;;;;;5133461;27;20468;-65
2021/09/29 01:04:46;;;;;;;10.27;8.20;;;16.70;99.90;;;;;;5133598;27;20469;-65
2021/09/29 01:07:19;;;;;;;8.73;7.90;;;16.70;99.90;;;;;;5133497;27;20460;-65
2021/09/29 01:09:55;;;;;;;9.10;8.23;;;16.60;99.90;;;;;;5134381;27;20472;-65
2021/09/29 01:12:30;;;;;;;8.30;7.20;;;16.60;99.90;;;;;;5120691;27;21216;-65
2021/09/29 01:15:03;;;;;;;10.50;8.70;;;16.60;99.90;;;;;;5132855;27;21012;-65
2021/09/29 01:17:31;;;;;;;9.20;8.27;;;16.60;99.90;;;;;;5132017;27;21248;-65
2021/09/29 01:20:08;;;;;;;9.30;8.40;;;16.50;99.90;;;;;;5133052;27;20793;-65
2021/09/29 01:23:12;;;;;;;9.87;8.13;;;16.50;99.90;;;;;;5120006;27;21211;-65
2021/09/29 01:25:48;;;;;;;12.30;9.70;;;16.50;99.90;;;;;;5086752;27;20623;-65
2021/09/29 01:28:20;;;;;;;15.07;9.30;;;16.50;99.90;;;;;;5132935;27;20459;-65
2021/09/29 01:30:47;;;;;;;11.57;8.80;;;16.40;99.90;;;;;;5135075;27;20576;-65
2021/09/29 01:33:16;;;;;;;9.87;7.10;;;16.40;99.90;;;;;;5132588;27;20953;-65
2021/09/29 01:35:43;;;;;;;9.27;8.20;;;16.40;99.90;;;;;;5135075;27;20459;-64
2021/09/29 01:38:11;;;;;;;7.67;6.90;;;16.40;99.90;;;;;;5135077;27;20464;-64
2021/09/29 01:40:38;;;;;;;8.77;7.87;;;16.40;99.90;;;;;;5133905;27;20463;-64
2021/09/29 01:43:05;;;;;;;10.37;8.10;;;16.40;99.90;;;;;;5133605;27;20463;-64
2021/09/29 01:45:35;;;;;;;10.30;7.33;;;16.40;99.90;;;;;;5133063;27;20456;-64
2021/09/29 01:48:02;;;;;;;11.83;8.23;;;16.40;99.90;;;;;;5134583;27;20813;-64
2021/09/29 01:50:31;;;;;;;9.13;7.83;;;16.30;99.90;;;;;;5134542;27;20952;-64
2021/09/29 01:53:01;;;;;;;7.83;7.13;;;16.30;99.90;;;;;;5134804;27;20555;-64
2021/09/29 01:55:29;;;;;;;9.40;6.97;;;16.30;99.90;;;;;;5134648;27;20470;-65
2021/09/29 01:57:56;;;;;;;11.93;8.00;;;16.30;99.90;;;;;;5134689;27;20464;-65
2021/09/29 02:00:24;;;;;;;12.23;7.53;;;16.30;99.90;;;;;;5134388;27;21014;-65
2021/09/29 02:02:56;;;;;;;9.53;7.40;;;16.30;99.90;;;;;;5134246;27;20459;-65
2021/09/29 02:05:31;;;;;;;8.30;7.50;;;16.30;99.90;;;;;;5134082;27;20463;-65
2021/09/29 02:07:58;;;;;;;12.17;8.80;;;16.30;99.90;;;;;;5134444;27;20491;-65
2021/09/29 02:10:26;;;;;;;8.80;7.70;;;16.30;99.90;;;;;;5134040;27;20485;-65
2021/09/29 02:12:53;;;;;;;13.50;8.33;;;16.30;99.90;;;;;;5124451;27;20968;-65
2021/09/29 02:15:21;;;;;;;8.63;6.90;;;16.30;99.90;;;;;;5134005;27;20872;-64
2021/09/29 02:17:48;;;;;;;8.47;7.40;;;16.30;99.90;;;;;;5133354;27;21049;-64
2021/09/29 02:20:17;;;;;;;9.53;7.60;;;16.30;99.90;;;;;;5130420;27;20471;-64
2021/09/29 02:22:44;;;;;;;8.27;7.47;;;16.40;99.90;;;;;;5133981;27;20452;-64
2021/09/29 02:25:12;;;;;;;10.23;7.03;;;16.40;99.90;;;;;;5134324;27;20462;-64
2021/09/29 02:27:40;;;;;;;10.33;8.60;;;16.40;99.90;;;;;;5133722;27;20470;-64
2021/09/29 02:30:09;;;;;;;7.93;7.13;;;16.40;99.90;;;;;;5133776;27;20463;-64
2021/09/29 02:32:37;;;;;;;9.90;7.17;;;16.50;99.90;;;;;;5133831;27;20854;-64
2021/09/29 02:35:05;;;;;;;8.67;7.80;;;16.50;99.90;;;;;;5134125;27;20464;-64
2021/09/29 02:37:33;;;;;;;7.13;6.20;;;16.50;99.90;;;;;;5133565;27;20483;-64
2021/09/29 02:40:00;;;;;;;7.87;7.27;;;16.60;99.90;;;;;;5133931;27;20468;-64
2021/09/29 02:42:27;;;;;;;10.00;8.70;;;16.60;99.90;;;;;;5131933;27;20475;-65
2021/09/29 02:44:54;;;;;;;7.47;6.67;;;16.60;99.90;;;;;;5132421;27;20464;-64
2021/09/29 02:47:21;;;;;;;9.00;8.20;;;16.60;99.90;;;;;;5132998;27;20460;-65
2021/09/29 02:49:48;;;;;;;9.00;8.10;;;16.60;99.90;;;;;;5132323;27;20467;-65
2021/09/29 02:52:15;;;;;;;9.20;8.17;;;16.60;99.90;;;;;;5129231;27;20481;-65
2021/09/29 02:54:43;;;;;;;12.93;9.37;;;16.70;99.90;;;;;;5129200;27;20467;-65
2021/09/29 02:57:10;;;;;;;12.00;10.80;;;16.70;99.90;;;;;;5133292;27;20486;-65
2021/09/29 02:59:37;;;;;;;12.80;9.30;;;16.70;99.90;;;;;;5132042;27;20490;-65
2021/09/29 03:02:04;;;;;;;10.70;9.50;;;16.70;99.90;;;;;;5133613;27;20467;-63
2021/09/29 03:04:31;;;;;;;12.27;10.80;;;16.70;99.90;;;;;;5128017;27;20548;-64
2021/09/29 03:06:58;;;;;;;12.03;9.73;;;16.70;99.90;;;;;;5124996;27;20809;-65
2021/09/29 03:09:25;;;;;;;17.10;12.30;;;16.70;99.90;;;;;;5130181;27;20471;-65
2021/09/29 03:11:53;;;;;;;16.97;10.33;;;16.70;99.90;;;;;;5119783;27;20468;-65
2021/09/29 03:14:20;;;;;;;12.03;10.43;;;16.70;99.90;;;;;;5131399;27;20456;-65
2021/09/29 03:16:46;;;;;;;12.07;9.60;;;16.70;99.90;;;;;;5129508;27;20459;-65
2021/09/29 03:19:14;;;;;;;10.33;8.70;;;16.70;99.90;;;;;;5131278;27;20502;-65
2021/09/29 03:21:41;;;;;;;12.07;10.80;;;16.70;99.90;;;;;;5132531;27;20460;-65
2021/09/29 03:24:07;;;;;;;22.17;18.17;;;16.80;99.90;;;;;;5131082;27;20794;-65
2021/09/29 03:26:36;;;;;;;15.00;11.43;;;16.80;99.90;;;;;;5124009;27;20464;-65
2021/09/29 03:29:04;;;;;;;16.33;13.73;;;16.80;99.90;;;;;;5129914;27;20987;-65
2021/09/29 03:31:31;;;;;;;14.20;12.70;;;16.80;99.90;;;;;;5130340;27;20471;-65
2021/09/29 03:33:57;;;;;;;15.10;13.00;;;16.80;99.90;;;;;;5131895;27;20460;-65
2021/09/29 03:36:24;;;;;;;21.80;16.20;;;16.80;99.90;;;;;;5131300;27;20468;-65
2021/09/29 03:38:51;;;;;;;19.83;13.70;;;16.70;99.90;;;;;;5131446;27;20464;-65
2021/09/29 03:41:18;;;;;;;19.37;13.40;;;16.70;99.90;;;;;;5133198;27;20470;-65
2021/09/29 03:43:45;;;;;;;21.10;13.30;;;16.80;99.90;;;;;;5132508;27;20460;-65
2021/09/29 03:46:13;;;;;;;20.30;12.63;;;16.80;99.90;;;;;;5132355;27;20463;-65
2021/09/29 03:48:40;;;;;;;14.87;10.87;;;16.70;99.90;;;;;;5133158;27;20474;-65
2021/09/29 03:51:07;;;;;;;18.57;12.90;;;16.70;99.90;;;;;;5133440;27;20524;-65
2021/09/29 03:53:34;;;;;;;22.87;14.97;;;16.80;99.90;;;;;;5132916;27;20987;-65
2021/09/29 03:56:01;;;;;;;26.53;16.73;;;16.70;99.90;;;;;;5133525;27;20456;-65
2021/09/29 03:58:28;;;;;;;25.30;16.73;;;16.70;99.90;;;;;;5132829;27;20983;-65
2021/09/29 04:00:55;;;;;;;20.30;13.87;;;16.70;99.90;;;;;;5133340;27;20455;-65
2021/09/29 04:03:23;;;;;;;23.90;14.53;;;16.70;99.90;;;;;;5133270;27;20973;-65
2021/09/29 04:05:50;;;;;;;26.67;16.73;;;16.70;99.90;;;;;;5135122;27;20467;-65
2021/09/29 04:08:17;;;;;;;25.23;16.03;;;16.70;99.90;;;;;;5136983;27;20477;-65
2021/09/29 04:10:44;;;;;;;24.63;16.60;;;16.70;99.90;;;;;;5136894;27;20473;-64
2021/09/29 04:13:11;;;;;;;24.60;15.30;;;16.70;99.90;;;;;;5136906;27;21008;-64
2021/09/29 04:15:38;;;;;;;23.80;16.40;;;16.70;99.90;;;;;;5136698;27;20466;-64
2021/09/29 04:18:05;;;;;;;23.20;16.13;;;16.70;99.90;;;;;;5136927;27;20459;-64
2021/09/29 04:20:34;;;;;;;31.93;19.47;;;16.80;99.90;;;;;;5136570;27;20542;-64
2021/09/29 04:23:01;;;;;;;35.83;19.53;;;16.80;99.90;;;;;;5137159;27;20459;-64
2021/09/29 04:25:28;;;;;;;27.27;18.20;;;16.80;99.90;;;;;;5136511;27;20477;-64
2021/09/29 04:27:55;;;;;;;32.47;20.50;;;16.80;99.90;;;;;;5136740;27;20491;-64
2021/09/29 04:30:21;;;;;;;32.17;21.73;;;16.80;99.90;;;;;;5136803;27;20971;-64
2021/09/29 04:32:48;;;;;;;32.53;22.73;;;16.80;99.90;;;;;;5136359;27;20797;-65
2021/09/29 04:35:15;;;;;;;29.83;19.73;;;16.80;99.90;;;;;;5136756;27;20953;-65
2021/09/29 04:37:43;;;;;;;33.67;20.63;;;16.80;99.90;;;;;;5136227;27;20960;-65
2021/09/29 04:40:10;;;;;;;33.97;22.03;;;16.80;99.90;;;;;;5136439;27;20464;-65
2021/09/29 04:42:37;;;;;;;32.00;18.47;;;16.80;99.90;;;;;;5135967;27;20542;-64
2021/09/29 04:45:06;;;;;;;33.87;20.27;;;16.80;99.90;;;;;;5136586;27;20510;-65
2021/09/29 04:47:33;;;;;;;33.77;21.23;;;16.80;99.90;;;;;;5136068;27;20542;-65
2021/09/29 04:50:00;;;;;;;35.37;21.40;;;16.80;99.90;;;;;;5136359;27;20473;-65
2021/09/29 04:52:27;;;;;;;33.40;20.97;;;16.80;99.90;;;;;;5136415;27;20558;-65
2021/09/29 04:54:55;;;;;;;43.63;22.37;;;16.80;99.90;;;;;;5135975;27;20460;-65
2021/09/29 04:57:22;;;;;;;32.40;19.83;;;16.80;99.90;;;;;;5136238;27;20470;-65
2021/09/29 04:59:49;;;;;;;37.33;20.40;;;16.80;99.90;;;;;;5135738;27;20861;-65
2021/09/29 05:02:16;;;;;;;48.50;23.27;;;16.80;99.90;;;;;;5136094;27;20474;-65
2021/09/29 05:04:43;;;;;;;41.97;23.00;;;16.80;99.90;;;;;;5135519;27;20470;-65
2021/09/29 05:07:17;;;;;;;41.90;23.77;;;16.80;99.90;;;;;;5136136;27;20466;-65
2021/09/29 05:09:45;;;;;;;44.53;23.73;;;16.70;99.90;;;;;;5135589;27;20481;-64
2021/09/29 05:12:22;;;;;;;35.27;22.17;;;16.70;99.90;;;;;;5135835;27;20456;-65
2021/09/29 05:14:49;;;;;;;40.80;20.13;;;16.80;99.90;;;;;;5135635;27;20467;-65
2021/09/29 05:17:15;;;;;;;37.90;20.40;;;16.80;99.90;;;;;;5135233;27;20460;-65
2021/09/29 05:19:42;;;;;;;32.60;19.70;;;16.80;99.90;;;;;;5135263;27;20485;-65
2021/09/29 05:22:09;;;;;;;42.47;22.27;;;16.80;99.90;;;;;;5135843;27;20456;-65
2021/09/29 05:24:36;;;;;;;37.33;21.50;;;16.80;99.90;;;;;;5135345;27;20551;-65
2021/09/29 05:27:04;;;;;;;28.07;18.87;;;16.80;99.90;;;;;;5135487;27;20470;-65
2021/09/29 05:29:32;;;;;;;37.57;22.00;;;16.80;99.90;;;;;;5135578;27;20467;-65
2021/09/29 05:32:00;;;;;;;39.20;21.83;;;16.80;99.90;;;;;;5135341;27;20448;-65
2021/09/29 05:34:26;;;;;;;35.23;20.60;;;16.80;99.90;;;;;;5135486;27;20597;-65
2021/09/29 05:36:53;;;;;;;39.00;21.93;;;16.80;99.90;;;;;;5135149;27;20478;-65
2021/09/29 05:39:22;;;;;;;35.70;20.50;;;16.80;99.90;;;;;;5135258;27;20460;-65
2021/09/29 05:41:49;;;;;;;27.67;18.80;;;16.70;99.90;;;;;;5134836;27;20475;-65
2021/09/29 05:44:16;;;;;;;40.00;21.93;;;16.80;99.90;;;;;;5135395;27;20957;-65
2021/09/29 05:46:44;;;;;;;33.93;21.60;;;16.70;99.90;;;;;;5134582;27;20966;-65
2021/09/29 05:49:11;;;;;;;28.23;19.30;;;16.80;99.90;;;;;;5134956;27;20467;-65
2021/09/29 05:51:38;;;;;;;34.33;19.83;;;16.80;99.90;;;;;;5134800;27;20456;-65
2021/09/29 05:54:05;;;;;;;41.10;21.97;;;16.80;99.90;;;;;;5134976;27;20490;-65
2021/09/29 05:56:32;;;;;;;33.37;20.60;;;16.80;99.90;;;;;;5134966;27;20467;-65
2021/09/29 05:58:59;;;;;;;35.27;20.90;;;16.90;99.90;;;;;;5134427;27;20479;-65
2021/09/29 06:01:26;;;;;;;38.00;20.90;;;16.90;99.90;;;;;;5135118;27;21029;-65
2021/09/29 06:03:54;;;;;;;29.63;19.13;;;17.00;99.90;;;;;;5134485;27;20485;-65
2021/09/29 06:06:21;;;;;;;30.30;18.53;;;17.00;99.90;;;;;;5134871;27;20459;-65
2021/09/29 06:08:47;;;;;;;29.27;20.70;;;17.00;99.90;;;;;;5134310;27;20470;-65
2021/09/29 06:11:14;;;;;;;31.37;19.33;;;17.10;99.90;;;;;;5135022;27;20452;-65
2021/09/29 06:13:41;;;;;;;28.63;17.70;;;17.10;99.90;;;;;;5134367;27;20809;-65
2021/09/29 06:16:09;;;;;;;35.70;22.90;;;17.10;99.90;;;;;;5134739;27;20456;-65
2021/09/29 06:18:36;;;;;;;32.87;22.37;;;17.10;99.90;;;;;;5134638;27;20467;-65
2021/09/29 06:21:07;;;;;;;31.23;21.40;;;17.20;99.90;;;;;;5134129;27;20443;-65
2021/09/29 06:23:34;;;;;;;37.60;21.50;;;17.20;99.90;;;;;;5134455;27;20467;-65
2021/09/29 06:26:02;;;;;;;34.93;20.93;;;17.10;99.90;;;;;;5134357;27;20471;-65
2021/09/29 06:28:32;;;;;;;31.30;19.53;;;17.20;99.90;;;;;;5133467;27;20460;-65
2021/09/29 06:30:58;;;;;;;37.33;24.67;;;17.20;99.90;;;;;;5133960;27;20476;-65
2021/09/29 06:33:25;;;;;;;33.57;22.07;;;17.20;99.90;;;;;;5134392;27;20467;-65
2021/09/29 06:35:52;;;;;;;41.63;24.50;;;17.30;99.90;;;;;;5134024;27;20474;-65
2021/09/29 06:38:20;;;;;;;38.87;23.43;;;17.20;99.90;;;;;;5134105;27;20550;-65
2021/09/29 06:40:47;;;;;;;33.47;21.07;;;17.20;99.90;;;;;;5133864;27;20462;-65
2021/09/29 06:43:14;;;;;;;40.17;24.90;;;17.30;99.90;;;;;;5134078;27;20571;-65
2021/09/29 06:45:41;;;;;;;43.70;27.23;;;17.30;99.90;;;;;;5133732;27;20463;-65
2021/09/29 06:48:08;;;;;;;38.43;25.40;;;17.30;99.90;;;;;;5134254;27;20473;-65
2021/09/29 06:50:35;;;;;;;39.80;25.20;;;17.30;99.90;;;;;;5133858;27;20502;-65
2021/09/29 06:53:02;;;;;;;43.07;27.43;;;17.30;99.90;;;;;;5133648;27;20455;-65
2021/09/29 06:55:30;;;;;;;33.43;22.67;;;17.30;99.90;;;;;;5134197;27;20474;-65
2021/09/29 06:57:57;;;;;;;38.37;25.87;;;17.40;99.90;;;;;;5133398;27;20463;-65
2021/09/29 07:00:26;;;;;;;41.03;26.70;;;17.40;99.90;;;;;;5133877;27;20463;-65
2021/09/29 07:02:52;;;;;;;45.17;30.67;;;17.50;99.90;;;;;;5133627;27;20980;-65
2021/09/29 07:05:19;;;;;;;45.27;27.17;;;17.40;99.90;;;;;;5133666;27;20466;-65
2021/09/29 07:07:46;;;;;;;43.90;27.77;;;17.50;99.90;;;;;;5133584;27;20849;-65
2021/09/29 07:10:14;;;;;;;43.77;28.90;;;17.50;99.90;;;;;;5133569;27;20945;-65
2021/09/29 07:12:43;;;;;;;38.30;26.67;;;17.40;99.90;;;;;;5133621;27;20957;-65
2021/09/29 07:15:11;;;;;;;36.87;24.13;;;17.40;99.90;;;;;;5133642;27;21319;-65
2021/09/29 07:17:38;;;;;;;38.13;26.53;;;17.50;99.90;;;;;;5133700;27;20470;-65
2021/09/29 07:20:09;;;;;;;42.60;27.17;;;17.50;99.90;;;;;;5133044;27;20470;-65
2021/09/29 07:22:35;;;;;;;33.93;25.47;;;17.50;99.90;;;;;;5133872;27;20459;-65
2021/09/29 07:25:02;;;;;;;37.40;24.53;;;17.60;99.90;;;;;;5133085;27;20459;-65
2021/09/29 07:27:29;;;;;;;36.47;26.23;;;17.60;99.90;;;;;;5133460;27;21020;-65
2021/09/29 07:29:58;;;;;;;37.93;26.13;;;17.60;99.90;;;;;;5133257;27;20471;-65
2021/09/29 07:32:25;;;;;;;27.80;22.40;;;17.60;99.90;;;;;;5133399;27;21017;-65
2021/09/29 07:34:52;;;;;;;39.77;26.70;;;17.70;99.90;;;;;;5133139;27;20460;-65
2021/09/29 07:37:19;;;;;;;37.03;25.90;;;17.80;99.90;;;;;;5133616;27;20465;-65
2021/09/29 07:39:46;;;;;;;36.93;27.03;;;17.70;99.90;;;;;;5135512;27;20482;-65
2021/09/29 07:42:13;;;;;;;40.07;25.83;;;17.70;99.90;;;;;;5137265;27;20454;-65
2021/09/29 07:44:40;;;;;;;34.13;25.50;;;17.70;99.90;;;;;;5137734;27;21003;-65
2021/09/29 07:47:08;;;;;;;44.07;29.50;;;17.80;99.90;;;;;;5137163;27;20464;-65
2021/09/29 07:49:35;;;;;;;37.30;25.20;;;17.70;99.90;;;;;;5137595;27;20473;-65
2021/09/29 07:52:02;;;;;;;41.93;28.23;;;17.70;99.90;;;;;;5137218;27;20477;-65
2021/09/29 07:54:29;;;;;;;36.10;25.50;;;17.70;99.90;;;;;;5137427;27;20462;-65
2021/09/29 07:56:56;;;;;;;38.73;26.17;;;17.70;99.90;;;;;;5137005;27;20459;-65
2021/09/29 07:59:24;;;;;;;35.80;25.67;;;17.60;99.90;;;;;;5137131;27;20463;-65
2021/09/29 08:01:51;;;;;;;38.57;26.60;;;17.70;99.90;;;;;;5136843;27;20474;-65
2021/09/29 08:04:21;;;;;;;43.77;29.17;;;17.70;99.90;;;;;;5137199;27;20462;-65
2021/09/29 08:06:48;;;;;;;40.30;25.83;;;17.60;99.90;;;;;;5137212;27;20479;-65
2021/09/29 08:09:15;;;;;;;38.87;28.73;;;17.60;99.90;;;;;;5136745;27;20601;-65
2021/09/29 08:11:42;;;;;;;36.67;26.77;;;17.60;99.90;;;;;;5137186;27;20571;-65
2021/09/29 08:14:09;;;;;;;36.30;25.67;;;17.50;99.90;;;;;;5136794;27;20805;-65
2021/09/29 08:16:35;;;;;;;45.90;27.13;;;17.50;99.90;;;;;;5137009;27;20804;-65
2021/09/29 08:19:02;;;;;;;37.03;25.40;;;17.50;99.90;;;;;;5136487;27;20472;-65
2021/09/29 08:21:31;;;;;;;42.80;26.30;;;17.50;99.90;;;;;;5136843;27;20473;-65
2021/09/29 08:24:03;;;;;;;38.17;24.60;;;17.50;99.90;;;;;;5136336;27;20463;-65
2021/09/29 08:26:43;;;;;;;33.13;24.13;;;17.60;99.90;;;;;;5136830;27;20492;-65
2021/09/29 08:32:04;;;;;;;40.97;27.70;;;17.70;99.90;;;;;;5136053;27;20452;-65
2021/09/29 08:34:36;;;;;;;41.30;27.27;;;17.70;99.90;;;;;;5136741;27;20508;-65
2021/09/29 08:37:08;;;;;;;38.33;26.80;;;17.70;99.90;;;;;;5136199;27;20467;-65
2021/09/29 08:39:41;;;;;;;45.57;30.47;;;17.70;99.90;;;;;;5136356;27;20468;-65
2021/09/29 08:42:19;;;;;;;44.13;30.07;;;17.70;99.90;;;;;;5135927;27;20520;-65
2021/09/29 08:44:51;;;;;;;42.40;31.17;;;17.80;99.90;;;;;;5136712;27;20822;-65
2021/09/29 08:47:24;;;;;;;46.53;30.70;;;17.70;99.90;;;;;;5136267;27;20534;-65
2021/09/29 08:50:12;;;;;;;48.53;31.87;;;17.70;99.90;;;;;;5136162;27;20543;-65
2021/09/29 09:17:46;;;;;;;50.80;35.40;;;17.50;99.90;;;;;;5135928;27;20921;-64
2021/09/29 09:20:16;;;;;;;60.30;38.27;;;17.50;99.90;;;;;;5135184;27;21002;-64
2021/09/29 09:22:44;;;;;;;60.90;40.03;;;17.50;99.90;;;;;;5135809;27;20971;-64
2021/09/29 09:25:12;;;;;;;52.20;35.23;;;17.60;99.90;;;;;;5135233;27;20887;-64
2021/09/29 09:27:43;;;;;;;56.23;36.57;;;17.60;99.90;;;;;;5135489;27;20957;-65
2021/09/29 09:30:11;;;;;;;51.07;36.30;;;17.60;99.90;;;;;;5135001;27;20460;-66
2021/09/29 09:32:43;;;;;;;53.00;36.77;;;17.60;99.90;;;;;;5135661;27;20467;-65
2021/09/29 09:35:13;;;;;;;65.57;39.73;;;17.50;99.90;;;;;;5135021;27;20961;-65
2021/09/29 09:37:42;;;;;;;57.77;38.90;;;17.50;99.90;;;;;;5135550;27;20798;-65
2021/09/29 09:40:13;;;;;;;64.70;41.10;;;17.40;99.90;;;;;;5134840;27;20464;-65
2021/09/29 09:42:42;;;;;;;59.67;40.10;;;17.40;99.90;;;;;;5135202;27;20950;-65
2021/09/29 09:45:10;;;;;;;64.47;37.17;;;17.40;99.90;;;;;;5134981;27;20926;-64
2021/09/29 09:47:43;;;;;;;49.50;34.63;;;17.40;99.90;;;;;;5135454;27;20528;-64
2021/09/29 09:50:11;;;;;;;54.07;37.70;;;17.50;99.90;;;;;;5134238;27;20752;-64
2021/09/29 09:52:41;;;;;;;52.90;35.00;;;17.50;99.90;;;;;;5135080;27;20470;-65
2021/09/29 09:55:10;;;;;;;58.03;39.60;;;17.50;99.90;;;;;;5134242;27;21229;-64
2021/09/29 09:57:40;;;;;;;56.23;38.03;;;17.50;99.90;;;;;;5129366;27;20524;-64
2021/09/29 10:00:09;;;;;;;56.73;36.83;;;17.50;99.90;;;;;;5134242;27;20974;-64
2021/09/29 10:02:42;;;;;;;42.20;31.77;;;17.50;99.90;;;;;;5134778;27;20470;-64
2021/09/29 10:05:10;;;;;;;55.80;38.50;;;17.50;99.90;;;;;;5134239;27;20463;-65
2021/09/29 10:07:40;;;;;;;60.20;39.00;;;17.60;99.90;;;;;;5134643;27;20455;-65
2021/09/29 10:10:11;;;;;;;55.40;37.53;;;17.60;99.90;;;;;;5134335;27;20466;-65
2021/09/29 10:13:00;;;;;;;48.27;33.17;;;17.60;99.90;;;;;;5134742;27;20541;-64
2021/09/29 10:24:06;;;;;;;52.70;38.00;;;17.70;99.90;;;;;;5114013;27;20487;-65
2021/09/29 10:26:32;;;;;;;49.80;37.30;;;17.70;99.90;;;;;;5113845;27;20448;-65
2021/09/29 10:29:06;;;;;;;51.13;36.70;;;17.70;99.90;;;;;;5113647;27;20945;-66
2021/09/29 10:31:46;;;;;;;54.80;37.77;;;17.70;99.90;;;;;;5113403;27;20477;-67
2021/09/29 10:34:27;;;;;;;47.80;36.37;;;17.70;99.90;;;;;;5131796;27;20488;-67
2021/09/29 10:37:26;;;;;;;49.33;35.50;;;17.60;99.90;;;;;;5134437;27;20805;-67
2021/09/29 10:42:55;;;;;;;52.50;34.63;;;17.70;99.90;;;;;;5128282;27;20447;-67
2021/09/29 10:45:40;;;;;;;42.60;32.10;;;17.60;99.90;;;;;;5133900;27;20531;-67
2021/09/29 10:48:31;;;;;;;41.93;32.93;;;17.60;99.90;;;;;;5133703;27;20460;-66
2021/09/29 11:11:17;;;;;;;38.23;30.10;;;17.70;99.90;;;;;;5114034;27;20463;-67
2021/09/29 11:30:32;;;;;;;40.40;31.53;;;17.80;99.90;;;;;;5133342;27;20830;-67
2021/09/29 11:33:03;;;;;;;33.90;27.93;;;17.80;99.90;;;;;;5132821;27;20459;-67
2021/09/29 11:35:43;;;;;;;45.90;31.30;;;17.90;99.90;;;;;;5132892;27;20463;-66
2021/09/29 11:49:49;;;;;;;34.83;26.13;;;17.90;99.90;;;;;;5133704;27;20524;-66
2021/09/29 12:09:03;;;;;;;35.30;26.77;;;18.00;99.90;;;;;;5133489;27;20881;-67
2021/09/29 12:11:39;;;;;;;32.30;23.97;;;18.00;99.90;;;;;;5132825;27;20801;-67
2021/09/29 12:14:13;;;;;;;34.13;24.90;;;18.00;99.90;;;;;;5132664;27;20858;-67
2021/09/29 12:16:40;;;;;;;32.90;24.00;;;18.00;99.90;;;;;;5132559;27;20977;-67
2021/09/29 12:19:10;;;;;;;32.53;26.33;;;18.00;99.90;;;;;;5132252;27;20480;-67
2021/09/29 12:21:41;;;;;;;29.77;25.00;;;18.00;99.90;;;;;;5133046;27;20474;-67
2021/09/29 12:24:13;;;;;;;29.10;24.50;;;18.00;99.90;;;;;;5132662;27;20463;-67
2021/09/29 12:26:46;;;;;;;28.20;22.60;;;18.00;99.90;;;;;;5135069;27;20868;-67
2021/09/29 12:29:32;;;;;;;31.60;24.47;;;18.10;99.90;;;;;;5135840;27;20534;-67
2021/09/29 12:32:14;;;;;;;30.73;23.87;;;18.10;99.90;;;;;;5136379;27;20467;-67
2021/09/29 12:34:50;;;;;;;23.93;19.80;;;18.10;99.90;;;;;;5136271;27;21265;-67
2021/09/29 12:37:16;;;;;;;25.13;22.50;;;18.20;99.90;;;;;;5136366;27;20572;-67
2021/09/29 12:39:45;;;;;;;24.47;20.73;;;18.20;99.90;;;;;;5136096;27;20463;-67
2021/09/29 12:42:12;;;;;;;23.20;19.13;;;18.20;99.90;;;;;;5136323;27;20473;-67
2021/09/29 12:44:52;;;;;;;28.53;20.50;;;18.20;99.90;;;;;;5135740;27;20512;-67
2021/09/29 12:47:25;;;;;;;26.67;20.97;;;18.30;99.90;;;;;;5136351;27;20467;-67
2021/09/29 12:49:54;;;;;;;25.83;20.57;;;18.30;99.90;;;;;;5135959;27;21288;-67
2021/09/29 12:52:29;;;;;;;21.43;19.13;;;18.20;99.90;;;;;;5122099;27;20969;-67
2021/09/29 12:54:58;;;;;;;22.43;19.40;;;18.30;99.90;;;;;;5136069;27;20455;-67
2021/09/29 12:57:27;;;;;;;20.10;17.87;;;18.30;99.90;;;;;;5135817;27;20468;-67
2021/09/29 12:59:55;;;;;;;20.07;18.00;;;18.30;99.90;;;;;;5123296;27;20848;-67
2021/09/29 13:02:22;;;;;;;19.20;17.17;;;18.30;99.90;;;;;;5135769;27;20495;-66
2021/09/29 13:04:49;;;;;;;20.23;18.27;;;18.30;99.90;;;;;;5135288;27;20468;-66
2021/09/29 13:07:16;;;;;;;18.90;16.90;;;18.40;99.90;;;;;;5122207;27;20464;-67
2021/09/29 13:09:43;;;;;;;18.63;16.70;;;18.40;99.90;;;;;;5135486;27;20464;-66
2021/09/29 13:12:12;;;;;;;19.67;17.70;;;18.50;99.90;;;;;;5122241;27;20455;-66
2021/09/29 13:14:39;;;;;;;20.07;17.97;;;18.50;99.90;;;;;;5134972;27;20481;-67
2021/09/29 13:17:06;;;;;;;21.33;19.13;;;18.60;99.90;;;;;;5135704;27;20466;-67
2021/09/29 13:19:40;;;;;;;20.20;16.87;;;18.50;99.90;;;;;;5135040;27;20474;-67
2021/09/29 13:22:15;;;;;;;18.70;16.80;;;18.60;99.90;;;;;;5135544;27;20451;-67
2021/09/29 13:24:55;;;;;;;16.60;14.90;;;18.70;99.90;;;;;;5134970;27;20455;-67
2021/09/29 13:27:35;;;;;;;18.67;16.87;;;18.60;99.90;;;;;;5135574;27;20463;-67
2021/09/29 13:38:30;;;;;;;20.30;18.20;;;18.80;99.90;;;;;;5089560;27;20937;-67
2021/09/29 13:40:57;;;;;;;18.67;16.73;;;18.70;99.90;;;;;;5134853;27;20464;-67
2021/09/29 13:43:25;;;;;;;17.10;15.30;;;18.80;99.90;;;;;;5135111;27;20469;-67
2021/09/29 13:45:52;;;;;;;19.20;17.37;;;18.80;99.90;;;;;;5134687;27;20460;-67
2021/09/29 13:48:19;;;;;;;19.90;16.17;;;18.90;99.90;;;;;;5134866;27;20463;-67
2021/09/29 13:50:46;;;;;;;19.90;18.00;;;18.80;99.90;;;;;;5131095;27;20452;-67
2021/09/29 13:53:13;;;;;;;17.30;15.50;;;18.80;99.90;;;;;;5135216;27;20455;-67
2021/09/29 13:55:42;;;;;;;16.07;14.43;;;18.70;99.90;;;;;;5134320;27;20455;-67
2021/09/29 13:58:13;;;;;;;18.53;16.67;;;18.70;99.90;;;;;;5134483;27;20468;-67
2021/09/29 14:00:50;;;;;;;17.37;15.67;;;18.70;99.90;;;;;;5132355;27;20552;-67
2021/09/29 14:30:51;;;;;;;17.00;15.20;;;18.70;99.90;;;;;;5134156;27;20459;-66
2021/09/29 14:33:22;;;;;;;17.83;15.93;;;18.70;99.90;;;;;;5133851;27;20543;-66
2021/09/29 14:35:49;;;;;;;16.70;14.30;;;18.70;99.90;;;;;;5134216;27;20460;-66
2021/09/29 14:38:16;;;;;;;16.67;15.03;;;18.70;99.90;;;;;;5133457;27;20479;-66
2021/09/29 14:40:43;;;;;;;13.97;12.67;;;18.70;99.90;;;;;;5134047;27;20471;-66
2021/09/29 14:43:10;;;;;;;15.73;14.20;;;18.70;99.90;;;;;;5133472;27;20460;-66
2021/09/29 14:45:37;;;;;;;15.63;13.97;;;18.70;99.90;;;;;;5133957;27;20466;-66
2021/09/29 14:48:04;;;;;;;15.13;13.60;;;18.70;99.90;;;;;;5133060;27;20483;-68
2021/09/29 14:50:32;;;;;;;19.67;17.77;;;18.70;99.90;;;;;;5130345;27;20463;-67
2021/09/29 14:53:01;;;;;;;17.17;15.47;;;18.70;99.90;;;;;;5126608;27;20495;-67
2021/09/29 14:55:30;;;;;;;19.33;15.37;;;18.70;99.90;;;;;;5131815;27;20470;-66
2021/09/29 14:57:57;;;;;;;17.67;15.97;;;18.70;99.90;;;;;;5132305;27;20812;-67
2021/09/29 15:00:28;;;;;;;14.47;13.00;;;18.70;99.90;;;;;;5131714;27;20999;-66